sensor_id;sensor_type;location;lat;lon;timestamp;temperature;humidity
31133;DHT22;17779;50.942;4.026;2022-07-22T00:00:10;16.90;99.90
31133;DHT22;17779;50.942;4.026;2022-07-22T00:02:36;16.80;99.90
31133;DHT22;17779;50.942;4.026;2022-07-22T00:05:02;16.80;99.90
31133;DHT22;17779;50.942;4.026;2022-07-22T00:07:28;16.80;99.90
31133;DHT22;17779;50.942;4.026;2022-07-22T00:09:54;16.70;99.90
31133;DHT22;17779;50.942;4.026;2022-07-22T00:12:19;16.80;99.90
31133;DHT22;17779;50.942;4.026;2022-07-22T00:14:45;16.90;99.90
31133;DHT22;17779;50.942;4.026;2022-07-22T00:17:11;16.90;99.90
31133;DHT22;17779;50.942;4.026;2022-07-22T00:19:36;17.00;99.90
31133;DHT22;17779;50.942;4.026;2022-07-22T00:22:02;17.10;99.90
31133;DHT22;17779;50.942;4.026;2022-07-22T00:24:28;17.00;99.90
31133;DHT22;17779;50.942;4.026;2022-07-22T00:26:54;17.10;99.90
31133;DHT22;17779;50.942;4.026;2022-07-22T00:29:20;17.20;99.90
31133;DHT22;17779;50.942;4.026;2022-07-22T00:31:45;17.20;99.90
31133;DHT22;17779;50.942;4.026;2022-07-22T00:34:11;17.20;99.90
31133;DHT22;17779;50.942;4.026;2022-07-22T00:36:38;17.20;99.90
31133;DHT22;17779;50.942;4.026;2022-07-22T00:39:04;17.20;99.90
31133;DHT22;17779;50.942;4.026;2022-07-22T00:41:29;17.10;99.90
31133;DHT22;17779;50.942;4.026;2022-07-22T00:44:00;17.10;99.90
31133;DHT22;17779;50.942;4.026;2022-07-22T00:46:26;17.10;99.90
31133;DHT22;17779;50.942;4.026;2022-07-22T00:48:52;17.10;99.90
31133;DHT22;17779;50.942;4.026;2022-07-22T00:51:18;17.10;99.90
31133;DHT22;17779;50.942;4.026;2022-07-22T00:53:45;17.20;99.90
31133;DHT22;17779;50.942;4.026;2022-07-22T00:56:11;17.30;99.90
31133;DHT22;17779;50.942;4.026;2022-07-22T00:58:36;17.20;99.90
31133;DHT22;17779;50.942;4.026;2022-07-22T01:01:02;17.20;99.90
31133;DHT22;17779;50.942;4.026;2022-07-22T01:03:28;17.00;99.90
31133;DHT22;17779;50.942;4.026;2022-07-22T01:05:54;16.90;99.90
31133;DHT22;17779;50.942;4.026;2022-07-22T01:08:20;16.80;99.90
31133;DHT22;17779;50.942;4.026;2022-07-22T01:10:45;16.70;99.90
31133;DHT22;17779;50.942;4.026;2022-07-22T01:13:11;16.50;99.90
31133;DHT22;17779;50.942;4.026;2022-07-22T01:15:37;16.30;99.90
31133;DHT22;17779;50.942;4.026;2022-07-22T01:18:02;16.20;99.90
31133;DHT22;17779;50.942;4.026;2022-07-22T01:20:28;16.10;99.90
31133;DHT22;17779;50.942;4.026;2022-07-22T01:22:54;16.10;99.90
31133;DHT22;17779;50.942;4.026;2022-07-22T01:25:19;16.10;99.90
31133;DHT22;17779;50.942;4.026;2022-07-22T01:27:45;16.10;99.90
31133;DHT22;17779;50.942;4.026;2022-07-22T01:30:11;16.10;99.90
31133;DHT22;17779;50.942;4.026;2022-07-22T01:32:37;16.20;99.90
31133;DHT22;17779;50.942;4.026;2022-07-22T01:35:03;16.30;99.90
31133;DHT22;17779;50.942;4.026;2022-07-22T01:37:31;16.20;99.90
31133;DHT22;17779;50.942;4.026;2022-07-22T01:39:57;16.40;99.90
31133;DHT22;17779;50.942;4.026;2022-07-22T01:42:22;16.40;99.90
31133;DHT22;17779;50.942;4.026;2022-07-22T01:44:48;16.50;99.90
31133;DHT22;17779;50.942;4.026;2022-07-22T01:47:14;16.50;99.90
31133;DHT22;17779;50.942;4.026;2022-07-22T01:49:39;16.60;99.90
31133;DHT22;17779;50.942;4.026;2022-07-22T01:52:05;16.60;99.90
31133;DHT22;17779;50.942;4.026;2022-07-22T01:54:31;16.50;99.90
31133;DHT22;17779;50.942;4.026;2022-07-22T01:56:57;16.50;99.90
31133;DHT22;17779;50.942;4.026;2022-07-22T01:59:22;16.50;99.90
31133;DHT22;17779;50.942;4.026;2022-07-22T02:01:48;16.50;99.90
31133;DHT22;17779;50.942;4.026;2022-07-22T02:04:14;16.60;99.90
31133;DHT22;17779;50.942;4.026;2022-07-22T02:06:40;16.60;99.90
31133;DHT22;17779;50.942;4.026;2022-07-22T02:09:06;16.50;99.90
31133;DHT22;17779;50.942;4.026;2022-07-22T02:11:31;16.60;99.90
31133;DHT22;17779;50.942;4.026;2022-07-22T02:13:57;16.60;99.90
31133;DHT22;17779;50.942;4.026;2022-07-22T02:16:23;16.50;99.90
31133;DHT22;17779;50.942;4.026;2022-07-22T02:18:51;16.50;99.90
31133;DHT22;17779;50.942;4.026;2022-07-22T02:21:18;16.40;99.90
31133;DHT22;17779;50.942;4.026;2022-07-22T02:23:43;16.40;99.90
31133;DHT22;17779;50.942;4.026;2022-07-22T02:26:09;16.50;99.90
31133;DHT22;17779;50.942;4.026;2022-07-22T02:28:35;16.60;99.90
31133;DHT22;17779;50.942;4.026;2022-07-22T02:31:01;16.60;99.90
31133;DHT22;17779;50.942;4.026;2022-07-22T02:33:26;16.50;99.90
31133;DHT22;17779;50.942;4.026;2022-07-22T02:35:52;16.40;99.90
31133;DHT22;17779;50.942;4.026;2022-07-22T02:38:18;16.40;99.90
31133;DHT22;17779;50.942;4.026;2022-07-22T02:40:43;16.40;99.90
31133;DHT22;17779;50.942;4.026;2022-07-22T02:43:10;16.40;99.90
31133;DHT22;17779;50.942;4.026;2022-07-22T02:45:36;16.40;99.90
31133;DHT22;17779;50.942;4.026;2022-07-22T02:48:02;16.40;99.90
31133;DHT22;17779;50.942;4.026;2022-07-22T02:50:28;16.40;99.90
31133;DHT22;17779;50.942;4.026;2022-07-22T02:52:53;16.20;99.90
31133;DHT22;17779;50.942;4.026;2022-07-22T02:55:19;16.10;99.90
31133;DHT22;17779;50.942;4.026;2022-07-22T02:57:45;16.00;99.90
31133;DHT22;17779;50.942;4.026;2022-07-22T03:00:13;15.90;99.90
31133;DHT22;17779;50.942;4.026;2022-07-22T03:02:39;15.80;99.90
31133;DHT22;17779;50.942;4.026;2022-07-22T03:05:05;15.80;99.90
31133;DHT22;17779;50.942;4.026;2022-07-22T03:07:30;15.80;99.90
31133;DHT22;17779;50.942;4.026;2022-07-22T03:09:56;15.80;99.90
31133;DHT22;17779;50.942;4.026;2022-07-22T03:12:22;15.90;99.90
31133;DHT22;17779;50.942;4.026;2022-07-22T03:14:48;15.80;99.90
31133;DHT22;17779;50.942;4.026;2022-07-22T03:17:14;15.90;99.90
31133;DHT22;17779;50.942;4.026;2022-07-22T03:19:40;15.80;99.90
31133;DHT22;17779;50.942;4.026;2022-07-22T03:22:05;15.80;99.90
31133;DHT22;17779;50.942;4.026;2022-07-22T03:24:31;15.90;99.90
31133;DHT22;17779;50.942;4.026;2022-07-22T03:26:57;16.00;99.90
31133;DHT22;17779;50.942;4.026;2022-07-22T03:29:23;15.90;99.90
31133;DHT22;17779;50.942;4.026;2022-07-22T03:31:49;15.90;99.90
31133;DHT22;17779;50.942;4.026;2022-07-22T03:34:15;16.00;99.90
31133;DHT22;17779;50.942;4.026;2022-07-22T03:36:41;16.00;99.90
31133;DHT22;17779;50.942;4.026;2022-07-22T03:39:06;15.90;99.90
31133;DHT22;17779;50.942;4.026;2022-07-22T03:41:32;15.70;99.90
31133;DHT22;17779;50.942;4.026;2022-07-22T03:43:58;15.70;99.90
31133;DHT22;17779;50.942;4.026;2022-07-22T03:46:24;15.80;99.90
31133;DHT22;17779;50.942;4.026;2022-07-22T03:48:49;15.90;99.90
31133;DHT22;17779;50.942;4.026;2022-07-22T03:51:15;15.80;99.90
31133;DHT22;17779;50.942;4.026;2022-07-22T03:53:42;15.70;99.90
31133;DHT22;17779;50.942;4.026;2022-07-22T03:56:08;15.80;99.90
31133;DHT22;17779;50.942;4.026;2022-07-22T03:58:33;15.80;99.90
31133;DHT22;17779;50.942;4.026;2022-07-22T04:00:59;15.80;99.90
31133;DHT22;17779;50.942;4.026;2022-07-22T04:03:25;15.90;99.90
31133;DHT22;17779;50.942;4.026;2022-07-22T04:05:50;15.80;99.90
31133;DHT22;17779;50.942;4.026;2022-07-22T04:08:17;15.70;99.90
31133;DHT22;17779;50.942;4.026;2022-07-22T04:10:43;15.70;99.90
31133;DHT22;17779;50.942;4.026;2022-07-22T04:13:09;15.70;99.90
31133;DHT22;17779;50.942;4.026;2022-07-22T04:15:34;15.90;99.90
31133;DHT22;17779;50.942;4.026;2022-07-22T04:18:00;16.10;99.90
31133;DHT22;17779;50.942;4.026;2022-07-22T04:20:26;16.10;99.90
31133;DHT22;17779;50.942;4.026;2022-07-22T04:22:52;16.10;99.90
31133;DHT22;17779;50.942;4.026;2022-07-22T04:25:18;16.20;99.90
31133;DHT22;17779;50.942;4.026;2022-07-22T04:27:44;16.20;99.90
31133;DHT22;17779;50.942;4.026;2022-07-22T04:30:10;16.20;99.90
31133;DHT22;17779;50.942;4.026;2022-07-22T04:32:36;16.40;99.90
31133;DHT22;17779;50.942;4.026;2022-07-22T04:35:01;16.50;99.90
31133;DHT22;17779;50.942;4.026;2022-07-22T04:37:27;16.70;99.90
31133;DHT22;17779;50.942;4.026;2022-07-22T04:39:53;16.90;99.90
31133;DHT22;17779;50.942;4.026;2022-07-22T04:42:18;17.00;99.90
31133;DHT22;17779;50.942;4.026;2022-07-22T04:44:44;17.10;99.90
31133;DHT22;17779;50.942;4.026;2022-07-22T04:47:10;17.10;99.90
31133;DHT22;17779;50.942;4.026;2022-07-22T04:49:36;17.10;99.90
31133;DHT22;17779;50.942;4.026;2022-07-22T04:52:03;17.10;99.90
31133;DHT22;17779;50.942;4.026;2022-07-22T04:54:29;17.20;99.90
31133;DHT22;17779;50.942;4.026;2022-07-22T04:56:55;17.30;99.90
31133;DHT22;17779;50.942;4.026;2022-07-22T04:59:20;17.30;99.90
31133;DHT22;17779;50.942;4.026;2022-07-22T05:01:46;17.30;99.90
31133;DHT22;17779;50.942;4.026;2022-07-22T05:04:12;17.40;99.90
31133;DHT22;17779;50.942;4.026;2022-07-22T05:06:38;17.40;99.90
31133;DHT22;17779;50.942;4.026;2022-07-22T05:09:03;17.30;99.90
31133;DHT22;17779;50.942;4.026;2022-07-22T05:11:29;17.20;99.90
31133;DHT22;17779;50.942;4.026;2022-07-22T05:13:55;17.30;99.90
31133;DHT22;17779;50.942;4.026;2022-07-22T05:16:20;17.50;99.90
31133;DHT22;17779;50.942;4.026;2022-07-22T05:18:46;17.60;99.90
31133;DHT22;17779;50.942;4.026;2022-07-22T05:21:12;17.50;99.90
31133;DHT22;17779;50.942;4.026;2022-07-22T05:23:38;17.60;99.90
31133;DHT22;17779;50.942;4.026;2022-07-22T05:26:04;17.70;99.90
31133;DHT22;17779;50.942;4.026;2022-07-22T05:28:29;17.90;99.90
31133;DHT22;17779;50.942;4.026;2022-07-22T05:30:55;18.10;99.90
31133;DHT22;17779;50.942;4.026;2022-07-22T05:33:21;18.10;99.90
31133;DHT22;17779;50.942;4.026;2022-07-22T05:35:47;18.30;99.90
31133;DHT22;17779;50.942;4.026;2022-07-22T05:38:12;18.40;99.90
31133;DHT22;17779;50.942;4.026;2022-07-22T05:40:38;18.50;99.90
31133;DHT22;17779;50.942;4.026;2022-07-22T05:43:05;18.60;99.90
31133;DHT22;17779;50.942;4.026;2022-07-22T05:45:31;18.70;99.90
31133;DHT22;17779;50.942;4.026;2022-07-22T05:47:57;18.60;99.90
31133;DHT22;17779;50.942;4.026;2022-07-22T05:50:23;18.80;99.90
31133;DHT22;17779;50.942;4.026;2022-07-22T05:52:49;18.80;99.90
31133;DHT22;17779;50.942;4.026;2022-07-22T05:55:15;19.00;99.90
31133;DHT22;17779;50.942;4.026;2022-07-22T05:57:42;18.70;99.90
31133;DHT22;17779;50.942;4.026;2022-07-22T06:00:07;19.00;99.90
31133;DHT22;17779;50.942;4.026;2022-07-22T06:02:33;19.40;99.90
31133;DHT22;17779;50.942;4.026;2022-07-22T06:04:59;19.50;99.90
31133;DHT22;17779;50.942;4.026;2022-07-22T06:07:26;19.40;99.90
31133;DHT22;17779;50.942;4.026;2022-07-22T06:09:52;19.60;99.90
31133;DHT22;17779;50.942;4.026;2022-07-22T06:12:18;19.50;99.90
31133;DHT22;17779;50.942;4.026;2022-07-22T06:14:44;19.60;99.90
31133;DHT22;17779;50.942;4.026;2022-07-22T06:17:12;20.10;99.90
31133;DHT22;17779;50.942;4.026;2022-07-22T06:19:38;20.20;99.90
31133;DHT22;17779;50.942;4.026;2022-07-22T06:22:03;20.10;99.90
31133;DHT22;17779;50.942;4.026;2022-07-22T06:24:29;19.90;99.90
31133;DHT22;17779;50.942;4.026;2022-07-22T06:26:55;19.80;99.90
31133;DHT22;17779;50.942;4.026;2022-07-22T06:29:21;19.70;99.90
31133;DHT22;17779;50.942;4.026;2022-07-22T06:31:46;19.60;99.90
31133;DHT22;17779;50.942;4.026;2022-07-22T06:34:12;19.70;99.90
31133;DHT22;17779;50.942;4.026;2022-07-22T06:36:38;20.30;99.90
31133;DHT22;17779;50.942;4.026;2022-07-22T06:39:04;20.40;99.90
31133;DHT22;17779;50.942;4.026;2022-07-22T06:41:30;20.60;99.90
31133;DHT22;17779;50.942;4.026;2022-07-22T06:43:55;21.00;99.90
31133;DHT22;17779;50.942;4.026;2022-07-22T06:46:21;21.40;99.90
31133;DHT22;17779;50.942;4.026;2022-07-22T06:48:48;21.00;99.90
31133;DHT22;17779;50.942;4.026;2022-07-22T06:51:13;20.90;99.90
31133;DHT22;17779;50.942;4.026;2022-07-22T06:53:40;21.20;99.90
31133;DHT22;17779;50.942;4.026;2022-07-22T06:56:06;20.90;99.90
31133;DHT22;17779;50.942;4.026;2022-07-22T06:58:32;21.30;99.90
31133;DHT22;17779;50.942;4.026;2022-07-22T07:00:57;21.10;99.90
31133;DHT22;17779;50.942;4.026;2022-07-22T07:03:23;21.40;99.90
31133;DHT22;17779;50.942;4.026;2022-07-22T07:05:52;22.00;99.90
31133;DHT22;17779;50.942;4.026;2022-07-22T07:08:18;21.60;99.90
31133;DHT22;17779;50.942;4.026;2022-07-22T07:10:43;21.60;99.90
31133;DHT22;17779;50.942;4.026;2022-07-22T07:13:09;21.80;99.90
31133;DHT22;17779;50.942;4.026;2022-07-22T07:15:35;22.40;99.90
31133;DHT22;17779;50.942;4.026;2022-07-22T07:18:01;23.00;99.90
31133;DHT22;17779;50.942;4.026;2022-07-22T07:20:27;23.70;99.90
31133;DHT22;17779;50.942;4.026;2022-07-22T07:22:52;23.90;99.90
31133;DHT22;17779;50.942;4.026;2022-07-22T07:25:19;24.30;99.90
31133;DHT22;17779;50.942;4.026;2022-07-22T07:27:45;24.10;99.90
31133;DHT22;17779;50.942;4.026;2022-07-22T07:30:11;23.90;99.90
31133;DHT22;17779;50.942;4.026;2022-07-22T07:32:37;23.40;99.90
31133;DHT22;17779;50.942;4.026;2022-07-22T07:35:03;22.60;99.90
31133;DHT22;17779;50.942;4.026;2022-07-22T07:37:29;21.60;99.90
31133;DHT22;17779;50.942;4.026;2022-07-22T07:39:55;21.20;99.90
31133;DHT22;17779;50.942;4.026;2022-07-22T07:42:21;21.30;99.90
31133;DHT22;17779;50.942;4.026;2022-07-22T07:44:47;20.80;99.90
31133;DHT22;17779;50.942;4.026;2022-07-22T07:47:13;21.00;99.90
31133;DHT22;17779;50.942;4.026;2022-07-22T07:49:44;20.90;99.90
31133;DHT22;17779;50.942;4.026;2022-07-22T07:52:12;21.20;99.90
31133;DHT22;17779;50.942;4.026;2022-07-22T07:54:39;21.40;99.90
31133;DHT22;17779;50.942;4.026;2022-07-22T07:57:05;21.30;99.90
31133;DHT22;17779;50.942;4.026;2022-07-22T07:59:32;21.70;99.90
31133;DHT22;17779;50.942;4.026;2022-07-22T08:01:58;21.40;99.90
31133;DHT22;17779;50.942;4.026;2022-07-22T08:04:24;21.50;99.90
31133;DHT22;17779;50.942;4.026;2022-07-22T08:06:49;21.70;99.90
31133;DHT22;17779;50.942;4.026;2022-07-22T08:09:15;22.60;99.90
31133;DHT22;17779;50.942;4.026;2022-07-22T08:11:41;23.90;99.90
31133;DHT22;17779;50.942;4.026;2022-07-22T08:14:06;24.90;99.90
31133;DHT22;17779;50.942;4.026;2022-07-22T08:16:32;23.70;99.90
31133;DHT22;17779;50.942;4.026;2022-07-22T08:18:58;22.80;99.90
31133;DHT22;17779;50.942;4.026;2022-07-22T08:21:24;23.70;99.90
31133;DHT22;17779;50.942;4.026;2022-07-22T08:23:51;23.40;99.90
31133;DHT22;17779;50.942;4.026;2022-07-22T08:26:16;24.00;99.90
31133;DHT22;17779;50.942;4.026;2022-07-22T08:31:10;22.70;99.90
31133;DHT22;17779;50.942;4.026;2022-07-22T08:33:37;22.50;99.90
31133;DHT22;17779;50.942;4.026;2022-07-22T08:36:02;22.70;99.90
31133;DHT22;17779;50.942;4.026;2022-07-22T08:38:30;23.30;99.90
31133;DHT22;17779;50.942;4.026;2022-07-22T08:40:56;24.10;99.90
31133;DHT22;17779;50.942;4.026;2022-07-22T08:43:22;24.10;99.90
31133;DHT22;17779;50.942;4.026;2022-07-22T08:45:48;24.30;99.90
31133;DHT22;17779;50.942;4.026;2022-07-22T08:48:16;23.00;99.90
31133;DHT22;17779;50.942;4.026;2022-07-22T08:50:42;22.20;99.90
31133;DHT22;17779;50.942;4.026;2022-07-22T08:53:08;22.20;99.90
31133;DHT22;17779;50.942;4.026;2022-07-22T08:55:46;22.40;99.90
31133;DHT22;17779;50.942;4.026;2022-07-22T08:58:13;22.40;99.90
31133;DHT22;17779;50.942;4.026;2022-07-22T09:00:39;23.10;99.90
31133;DHT22;17779;50.942;4.026;2022-07-22T09:03:17;22.40;99.90
31133;DHT22;17779;50.942;4.026;2022-07-22T09:05:43;22.30;99.90
31133;DHT22;17779;50.942;4.026;2022-07-22T09:08:09;22.40;99.90
31133;DHT22;17779;50.942;4.026;2022-07-22T09:10:35;22.60;99.90
31133;DHT22;17779;50.942;4.026;2022-07-22T09:13:05;23.10;99.90
31133;DHT22;17779;50.942;4.026;2022-07-22T09:15:32;22.50;99.90
31133;DHT22;17779;50.942;4.026;2022-07-22T09:17:59;23.10;99.90
31133;DHT22;17779;50.942;4.026;2022-07-22T09:20:25;23.50;99.90
31133;DHT22;17779;50.942;4.026;2022-07-22T09:22:51;23.20;99.90
31133;DHT22;17779;50.942;4.026;2022-07-22T09:25:19;23.80;99.90
31133;DHT22;17779;50.942;4.026;2022-07-22T09:27:45;24.30;99.90
31133;DHT22;17779;50.942;4.026;2022-07-22T09:30:15;24.80;99.90
31133;DHT22;17779;50.942;4.026;2022-07-22T09:32:41;25.00;99.90
31133;DHT22;17779;50.942;4.026;2022-07-22T09:35:07;24.80;99.90
31133;DHT22;17779;50.942;4.026;2022-07-22T09:37:33;25.20;99.90
31133;DHT22;17779;50.942;4.026;2022-07-22T09:40:14;25.40;99.90
31133;DHT22;17779;50.942;4.026;2022-07-22T09:42:44;24.20;99.90
31133;DHT22;17779;50.942;4.026;2022-07-22T09:45:10;24.80;99.90
31133;DHT22;17779;50.942;4.026;2022-07-22T09:47:36;24.30;99.90
31133;DHT22;17779;50.942;4.026;2022-07-22T09:50:02;24.20;99.90
31133;DHT22;17779;50.942;4.026;2022-07-22T09:52:27;25.00;99.90
31133;DHT22;17779;50.942;4.026;2022-07-22T09:54:53;25.50;99.90
31133;DHT22;17779;50.942;4.026;2022-07-22T09:57:19;25.40;99.90
31133;DHT22;17779;50.942;4.026;2022-07-22T09:59:45;26.50;99.90
31133;DHT22;17779;50.942;4.026;2022-07-22T10:02:10;26.40;99.90
31133;DHT22;17779;50.942;4.026;2022-07-22T10:04:37;26.00;99.90
31133;DHT22;17779;50.942;4.026;2022-07-22T10:07:03;26.70;99.90
31133;DHT22;17779;50.942;4.026;2022-07-22T10:09:29;26.80;99.90
31133;DHT22;17779;50.942;4.026;2022-07-22T10:11:55;24.60;99.90
31133;DHT22;17779;50.942;4.026;2022-07-22T10:14:21;26.10;99.90
31133;DHT22;17779;50.942;4.026;2022-07-22T10:16:47;26.00;99.90
31133;DHT22;17779;50.942;4.026;2022-07-22T10:19:13;25.30;99.90
31133;DHT22;17779;50.942;4.026;2022-07-22T10:21:39;24.50;99.90
31133;DHT22;17779;50.942;4.026;2022-07-22T10:24:13;23.90;99.90
31133;DHT22;17779;50.942;4.026;2022-07-22T10:26:46;23.10;99.90
31133;DHT22;17779;50.942;4.026;2022-07-22T10:35:26;26.20;99.90
31133;DHT22;17779;50.942;4.026;2022-07-22T10:40:16;26.10;99.90
31133;DHT22;17779;50.942;4.026;2022-07-22T10:45:26;25.20;99.90
31133;DHT22;17779;50.942;4.026;2022-07-22T10:47:56;25.70;99.90
31133;DHT22;17779;50.942;4.026;2022-07-22T10:53:03;25.20;99.90
31133;DHT22;17779;50.942;4.026;2022-07-22T10:55:31;27.30;99.90
31133;DHT22;17779;50.942;4.026;2022-07-22T10:57:57;27.60;99.90
31133;DHT22;17779;50.942;4.026;2022-07-22T11:00:23;27.50;99.90
31133;DHT22;17779;50.942;4.026;2022-07-22T11:02:49;27.70;99.90
31133;DHT22;17779;50.942;4.026;2022-07-22T11:05:14;27.90;99.90
31133;DHT22;17779;50.942;4.026;2022-07-22T11:07:49;27.20;99.90
31133;DHT22;17779;50.942;4.026;2022-07-22T11:10:16;27.90;99.90
31133;DHT22;17779;50.942;4.026;2022-07-22T11:12:42;26.80;99.90
31133;DHT22;17779;50.942;4.026;2022-07-22T11:15:09;26.10;99.90
31133;DHT22;17779;50.942;4.026;2022-07-22T11:17:35;26.40;99.90
31133;DHT22;17779;50.942;4.026;2022-07-22T11:20:05;26.00;99.90
31133;DHT22;17779;50.942;4.026;2022-07-22T11:22:32;25.10;99.90
31133;DHT22;17779;50.942;4.026;2022-07-22T11:25:00;25.40;99.90
31133;DHT22;17779;50.942;4.026;2022-07-22T11:27:26;26.10;99.90
31133;DHT22;17779;50.942;4.026;2022-07-22T11:29:52;26.10;99.90
31133;DHT22;17779;50.942;4.026;2022-07-22T11:32:19;26.70;99.90
31133;DHT22;17779;50.942;4.026;2022-07-22T11:34:45;27.40;99.90
31133;DHT22;17779;50.942;4.026;2022-07-22T11:37:12;26.00;99.90
31133;DHT22;17779;50.942;4.026;2022-07-22T11:39:38;24.90;99.90
31133;DHT22;17779;50.942;4.026;2022-07-22T11:42:05;24.40;99.90
31133;DHT22;17779;50.942;4.026;2022-07-22T11:44:31;24.20;99.90
31133;DHT22;17779;50.942;4.026;2022-07-22T11:46:58;24.00;99.90
31133;DHT22;17779;50.942;4.026;2022-07-22T11:49:24;24.40;99.90
31133;DHT22;17779;50.942;4.026;2022-07-22T11:51:50;24.70;99.90
31133;DHT22;17779;50.942;4.026;2022-07-22T11:54:16;24.90;99.90
31133;DHT22;17779;50.942;4.026;2022-07-22T11:56:42;24.60;99.90
31133;DHT22;17779;50.942;4.026;2022-07-22T11:59:13;24.60;99.90
31133;DHT22;17779;50.942;4.026;2022-07-22T12:01:42;25.40;99.90
31133;DHT22;17779;50.942;4.026;2022-07-22T12:04:12;26.30;99.90
31133;DHT22;17779;50.942;4.026;2022-07-22T12:09:14;26.80;99.90
31133;DHT22;17779;50.942;4.026;2022-07-22T12:11:45;26.10;99.90
31133;DHT22;17779;50.942;4.026;2022-07-22T12:14:12;25.20;99.90
31133;DHT22;17779;50.942;4.026;2022-07-22T12:19:08;25.10;99.90
31133;DHT22;17779;50.942;4.026;2022-07-22T12:21:49;25.30;99.90
31133;DHT22;17779;50.942;4.026;2022-07-22T12:24:25;25.40;99.90
31133;DHT22;17779;50.942;4.026;2022-07-22T12:26:51;25.30;99.90
31133;DHT22;17779;50.942;4.026;2022-07-22T12:29:19;25.80;99.90
31133;DHT22;17779;50.942;4.026;2022-07-22T12:31:45;26.30;99.90
31133;DHT22;17779;50.942;4.026;2022-07-22T12:34:12;27.00;99.90
31133;DHT22;17779;50.942;4.026;2022-07-22T12:36:37;27.10;99.90
31133;DHT22;17779;50.942;4.026;2022-07-22T12:39:13;26.80;99.90
31133;DHT22;17779;50.942;4.026;2022-07-22T12:41:46;27.00;99.90
31133;DHT22;17779;50.942;4.026;2022-07-22T12:44:16;27.30;99.90
31133;DHT22;17779;50.942;4.026;2022-07-22T12:46:46;27.70;99.90
31133;DHT22;17779;50.942;4.026;2022-07-22T12:49:12;27.60;99.90
31133;DHT22;17779;50.942;4.026;2022-07-22T12:51:37;27.40;99.90
31133;DHT22;17779;50.942;4.026;2022-07-22T12:54:09;28.40;99.90
31133;DHT22;17779;50.942;4.026;2022-07-22T12:56:35;28.50;99.90
31133;DHT22;17779;50.942;4.026;2022-07-22T12:59:01;27.60;99.90
31133;DHT22;17779;50.942;4.026;2022-07-22T13:01:26;27.50;99.90
31133;DHT22;17779;50.942;4.026;2022-07-22T13:03:52;27.50;99.90
31133;DHT22;17779;50.942;4.026;2022-07-22T13:06:18;27.00;99.90
31133;DHT22;17779;50.942;4.026;2022-07-22T13:08:44;26.40;99.90
31133;DHT22;17779;50.942;4.026;2022-07-22T13:11:10;26.20;99.90
31133;DHT22;17779;50.942;4.026;2022-07-22T13:13:35;25.60;99.90
31133;DHT22;17779;50.942;4.026;2022-07-22T13:16:01;25.60;99.90
31133;DHT22;17779;50.942;4.026;2022-07-22T13:18:27;25.80;99.90
31133;DHT22;17779;50.942;4.026;2022-07-22T13:20:52;26.10;99.90
31133;DHT22;17779;50.942;4.026;2022-07-22T13:23:18;26.00;99.90
31133;DHT22;17779;50.942;4.026;2022-07-22T13:25:44;26.40;99.90
31133;DHT22;17779;50.942;4.026;2022-07-22T13:28:10;26.20;99.90
31133;DHT22;17779;50.942;4.026;2022-07-22T13:30:36;25.50;99.90
31133;DHT22;17779;50.942;4.026;2022-07-22T13:33:01;25.70;99.90
31133;DHT22;17779;50.942;4.026;2022-07-22T13:35:27;25.90;99.90
31133;DHT22;17779;50.942;4.026;2022-07-22T13:37:55;26.00;99.90
31133;DHT22;17779;50.942;4.026;2022-07-22T13:40:20;26.00;99.90
31133;DHT22;17779;50.942;4.026;2022-07-22T13:42:46;26.00;99.90
31133;DHT22;17779;50.942;4.026;2022-07-22T13:45:12;26.60;99.90
31133;DHT22;17779;50.942;4.026;2022-07-22T13:47:41;26.60;99.90
31133;DHT22;17779;50.942;4.026;2022-07-22T13:50:07;26.00;99.90
31133;DHT22;17779;50.942;4.026;2022-07-22T13:52:33;26.20;99.90
31133;DHT22;17779;50.942;4.026;2022-07-22T13:54:59;25.50;99.90
31133;DHT22;17779;50.942;4.026;2022-07-22T13:57:25;25.60;99.90
31133;DHT22;17779;50.942;4.026;2022-07-22T13:59:50;25.60;99.90
31133;DHT22;17779;50.942;4.026;2022-07-22T14:02:16;25.60;99.90
31133;DHT22;17779;50.942;4.026;2022-07-22T14:04:42;25.80;99.90
31133;DHT22;17779;50.942;4.026;2022-07-22T14:07:08;25.80;99.90
31133;DHT22;17779;50.942;4.026;2022-07-22T14:09:34;25.40;99.90
31133;DHT22;17779;50.942;4.026;2022-07-22T14:11:59;24.90;99.90
31133;DHT22;17779;50.942;4.026;2022-07-22T14:14:25;24.90;99.90
31133;DHT22;17779;50.942;4.026;2022-07-22T14:16:51;24.80;99.90
31133;DHT22;17779;50.942;4.026;2022-07-22T14:19:17;25.10;99.90
31133;DHT22;17779;50.942;4.026;2022-07-22T14:21:45;25.30;99.90
31133;DHT22;17779;50.942;4.026;2022-07-22T14:24:11;25.10;99.90
31133;DHT22;17779;50.942;4.026;2022-07-22T14:26:37;25.20;99.90
31133;DHT22;17779;50.942;4.026;2022-07-22T14:29:03;25.30;99.90
31133;DHT22;17779;50.942;4.026;2022-07-22T14:31:29;25.60;99.90
31133;DHT22;17779;50.942;4.026;2022-07-22T14:33:55;25.90;99.90
31133;DHT22;17779;50.942;4.026;2022-07-22T14:36:21;26.30;99.90
31133;DHT22;17779;50.942;4.026;2022-07-22T14:38:47;25.90;99.90
31133;DHT22;17779;50.942;4.026;2022-07-22T14:41:15;26.00;99.90
31133;DHT22;17779;50.942;4.026;2022-07-22T14:43:41;26.20;99.90
31133;DHT22;17779;50.942;4.026;2022-07-22T14:46:07;25.80;99.90
31133;DHT22;17779;50.942;4.026;2022-07-22T14:48:33;25.60;99.90
31133;DHT22;17779;50.942;4.026;2022-07-22T14:51:01;25.80;99.90
31133;DHT22;17779;50.942;4.026;2022-07-22T14:53:27;26.00;99.90
31133;DHT22;17779;50.942;4.026;2022-07-22T14:55:53;25.20;99.90
31133;DHT22;17779;50.942;4.026;2022-07-22T14:58:18;25.40;99.90
31133;DHT22;17779;50.942;4.026;2022-07-22T15:00:44;25.60;99.90
31133;DHT22;17779;50.942;4.026;2022-07-22T15:03:10;25.60;99.90
31133;DHT22;17779;50.942;4.026;2022-07-22T15:05:35;25.50;99.90
31133;DHT22;17779;50.942;4.026;2022-07-22T15:08:01;25.50;99.90
31133;DHT22;17779;50.942;4.026;2022-07-22T15:10:27;25.60;99.90
31133;DHT22;17779;50.942;4.026;2022-07-22T15:12:53;25.70;99.90
31133;DHT22;17779;50.942;4.026;2022-07-22T15:15:18;25.40;99.90
31133;DHT22;17779;50.942;4.026;2022-07-22T15:17:44;25.50;99.90
31133;DHT22;17779;50.942;4.026;2022-07-22T15:20:11;25.20;99.90
31133;DHT22;17779;50.942;4.026;2022-07-22T15:22:37;25.10;99.90
31133;DHT22;17779;50.942;4.026;2022-07-22T15:25:03;25.20;99.90
31133;DHT22;17779;50.942;4.026;2022-07-22T15:27:29;25.30;99.90
31133;DHT22;17779;50.942;4.026;2022-07-22T15:29:55;25.40;99.90
31133;DHT22;17779;50.942;4.026;2022-07-22T15:32:20;25.40;99.90
31133;DHT22;17779;50.942;4.026;2022-07-22T15:34:46;25.60;99.90
31133;DHT22;17779;50.942;4.026;2022-07-22T15:37:12;25.50;99.90
31133;DHT22;17779;50.942;4.026;2022-07-22T15:39:37;25.20;99.90
31133;DHT22;17779;50.942;4.026;2022-07-22T15:42:03;24.80;99.90
31133;DHT22;17779;50.942;4.026;2022-07-22T15:44:29;24.60;99.90